createdAt,value
2022-08-26T00:02:54.623Z,55.41
2022-08-26T00:07:57.687Z,57.22
2022-08-26T00:13:00.730Z,58.31
2022-08-26T00:18:04.445Z,59.13
2022-08-26T00:23:24.091Z,59.91
2022-08-26T00:28:27.867Z,60.61
2022-08-26T00:33:31.048Z,61.31
2022-08-26T00:38:37.905Z,61.35
2022-08-26T00:43:46.218Z,61.80
2022-08-26T00:48:56.342Z,67.35
2022-08-26T00:54:06.123Z,62.62
2022-08-26T00:59:13.314Z,56.33
2022-08-26T01:04:21.667Z,56.46
2022-08-26T01:09:25.065Z,58.26
2022-08-26T01:14:34.121Z,58.97
2022-08-26T01:19:52.673Z,59.74
2022-08-26T01:24:58.981Z,60.64
2022-08-26T01:30:02.986Z,61.96
2022-08-26T01:35:08.161Z,67.23
2022-08-26T01:40:21.976Z,62.85
2022-08-26T01:45:30.660Z,56.06
2022-08-26T01:50:36.205Z,56.06
2022-08-26T01:55:43.193Z,57.82
2022-08-26T02:00:46.762Z,59.14
2022-08-26T02:05:55.839Z,60.28
2022-08-26T02:10:59.010Z,61.40
2022-08-26T02:16:04.114Z,66.32
2022-08-26T02:21:10.024Z,61.87
2022-08-26T02:26:19.261Z,55.24
2022-08-26T02:31:23.116Z,54.26
2022-08-26T02:36:28.728Z,55.46
2022-08-26T02:41:33.194Z,57.70
2022-08-26T02:46:36.366Z,59.40
2022-08-26T02:51:40.531Z,60.52
2022-08-26T02:56:46.284Z,61.58
2022-08-26T03:01:49.871Z,66.91
2022-08-26T03:06:53.648Z,63.40
2022-08-26T03:11:59.707Z,56.56
2022-08-26T03:17:02.675Z,56.78
2022-08-26T03:22:07.402Z,58.34
2022-08-26T03:27:10.747Z,59.51
2022-08-26T03:32:14.219Z,60.54
2022-08-26T03:37:17.244Z,60.99
2022-08-26T03:42:22.263Z,62.10
2022-08-26T03:47:25.375Z,67.49
2022-08-26T03:52:28.377Z,62.78
2022-08-26T03:57:31.451Z,56.34
2022-08-26T04:02:34.759Z,56.18
2022-08-26T04:07:38.125Z,58.09
2022-08-26T04:12:42.534Z,59.49
2022-08-26T04:17:45.955Z,61.12
2022-08-26T04:22:49.061Z,62.07
2022-08-26T04:27:52.365Z,67.65
2022-08-26T04:32:56.132Z,62.09
2022-08-26T04:37:59.134Z,54.62
2022-08-26T04:43:02.531Z,53.78
2022-08-26T04:48:05.978Z,52.48
2022-08-26T04:53:14.175Z,50.27
2022-08-26T04:58:19.721Z,48.01
2022-08-26T05:03:24.743Z,46.84
2022-08-26T05:08:27.750Z,45.27
2022-08-26T05:13:31.161Z,43.34
2022-08-26T05:18:34.808Z,42.40
2022-08-26T05:23:38.242Z,41.89
2022-08-26T05:28:41.350Z,41.55
2022-08-26T05:33:46.863Z,41.08
2022-08-26T05:38:50.395Z,40.94
2022-08-26T05:43:54.078Z,40.08
2022-08-26T05:48:58.216Z,39.50
2022-08-26T05:54:06.784Z,38.10
2022-08-26T05:59:14.698Z,38.87
2022-08-26T06:04:17.746Z,42.19
2022-08-26T06:09:23.578Z,44.97
2022-08-26T06:14:27.200Z,46.90
2022-08-26T06:19:32.775Z,49.30
2022-08-26T06:24:54.742Z,48.76
2022-08-26T06:29:57.817Z,50.02
2022-08-26T06:35:00.978Z,52.72
2022-08-26T06:40:05.922Z,51.80
2022-08-26T06:45:09.726Z,52.80
2022-08-26T06:50:14.299Z,53.00
2022-08-26T06:55:17.341Z,54.01
2022-08-26T07:00:21.499Z,54.88
2022-08-26T07:05:25.798Z,55.49
2022-08-26T07:10:29.264Z,54.68
2022-08-26T07:15:32.422Z,54.99
2022-08-26T07:20:43.037Z,55.12
2022-08-26T07:25:46.206Z,55.64
2022-08-26T07:30:50.132Z,56.09
2022-08-26T07:35:53.390Z,55.51
2022-08-26T07:40:56.370Z,54.03
2022-08-26T07:45:59.415Z,53.91
2022-08-26T07:51:03.387Z,54.31
2022-08-26T07:56:06.593Z,53.76
2022-08-26T08:01:09.906Z,53.54
2022-08-26T08:06:13.145Z,54.06
2022-08-26T08:11:16.129Z,53.74
2022-08-26T08:16:19.223Z,53.10
2022-08-26T08:21:26.778Z,53.97
2022-08-26T08:26:30.434Z,53.68
2022-08-26T08:36:58.770Z,53.10
2022-08-26T08:42:27.698Z,53.26
2022-08-26T08:47:43.201Z,53.09
2022-08-26T08:53:09.089Z,52.36
2022-08-26T08:58:19.271Z,52.97
2022-08-26T09:03:58.499Z,53.18
2022-08-26T09:09:05.048Z,52.54
2022-08-26T09:14:09.958Z,52.87
2022-08-26T09:19:26.786Z,52.55
2022-08-26T09:24:37.332Z,53.00
2022-08-26T09:29:45.733Z,51.62
2022-08-26T09:35:06.160Z,52.22
2022-08-26T09:40:34.896Z,50.80
2022-08-26T09:45:41.480Z,50.24
2022-08-26T09:50:56.975Z,49.64
2022-08-26T09:56:18.059Z,48.96
2022-08-26T10:01:24.172Z,48.30
2022-08-26T10:06:28.572Z,47.83
2022-08-26T10:11:47.279Z,47.76
2022-08-26T10:17:01.019Z,47.22
2022-08-26T10:22:26.182Z,47.45
2022-08-26T10:27:53.743Z,47.62
2022-08-26T10:33:08.217Z,46.98
2022-08-26T10:38:17.209Z,46.62
2022-08-26T10:43:55.952Z,46.09
2022-08-26T10:49:06.850Z,45.44
2022-08-26T10:54:47.768Z,43.57
2022-08-26T11:00:31.309Z,42.96
2022-08-26T11:05:34.504Z,43.57
2022-08-26T11:10:43.324Z,43.49
2022-08-26T11:15:46.217Z,43.65
2022-08-26T11:20:49.860Z,43.05
2022-08-26T11:25:57.477Z,41.88
2022-08-26T11:31:00.745Z,41.68
2022-08-26T11:36:12.023Z,41.49
2022-08-26T11:41:21.956Z,41.68
2022-08-26T11:46:31.466Z,41.32
2022-08-26T11:51:40.427Z,41.30
2022-08-26T11:56:48.769Z,41.28
2022-08-26T12:01:54.746Z,40.56
2022-08-26T12:07:00.830Z,39.22
2022-08-26T12:12:39.591Z,40.35
2022-08-26T12:17:45.569Z,40.74
2022-08-26T12:22:48.668Z,41.12
2022-08-26T12:27:53.646Z,40.26
2022-08-26T12:33:22.288Z,40.89
2022-08-26T12:38:28.409Z,40.59
2022-08-26T12:43:46.017Z,41.47
2022-08-26T12:48:50.184Z,41.66
2022-08-26T12:53:54.260Z,41.75
2022-08-26T12:59:26.352Z,40.27
2022-08-26T13:04:42.662Z,40.29
2022-08-26T13:09:45.840Z,40.05
2022-08-26T13:14:48.927Z,39.11
2022-08-26T13:19:52.089Z,38.97
2022-08-26T13:24:57.244Z,38.87
2022-08-26T13:30:01.766Z,39.50
2022-08-26T13:35:06.064Z,39.45
2022-08-26T13:40:11.094Z,39.47
2022-08-26T13:45:14.200Z,39.62
2022-08-26T13:50:17.431Z,40.64
2022-08-26T13:55:20.582Z,41.72
2022-08-26T14:00:23.835Z,40.71
2022-08-26T14:05:30.317Z,40.68
2022-08-26T14:10:33.992Z,40.31
2022-08-26T14:15:38.675Z,40.34
2022-08-26T14:20:50.772Z,40.00
2022-08-26T14:25:54.616Z,39.49
2022-08-26T14:30:58.812Z,40.05
2022-08-26T14:36:20.481Z,40.44
2022-08-26T14:41:25.569Z,40.40
2022-08-26T14:46:32.016Z,40.21
2022-08-26T14:51:35.216Z,40.23
2022-08-26T14:56:51.553Z,39.92
2022-08-26T15:01:55.994Z,39.44
2022-08-26T15:07:00.818Z,39.82
2022-08-26T15:12:06.075Z,39.90
2022-08-26T15:17:09.237Z,40.03
2022-08-26T15:22:12.387Z,40.11
2022-08-26T15:27:15.860Z,39.44
2022-08-26T15:32:19.144Z,39.06
2022-08-26T15:37:22.636Z,38.89
2022-08-26T15:42:25.712Z,39.33
2022-08-26T15:47:28.774Z,39.89
2022-08-26T15:52:33.189Z,39.09
2022-08-26T15:57:36.292Z,39.42
2022-08-26T16:02:39.708Z,39.55
2022-08-26T16:07:42.779Z,39.90
2022-08-26T16:12:45.870Z,39.63
2022-08-26T16:17:49.369Z,39.86
2022-08-26T16:22:52.539Z,39.84
2022-08-26T16:27:56.069Z,39.98
2022-08-26T16:32:59.054Z,40.03
2022-08-26T16:38:02.278Z,40.12
2022-08-26T16:43:05.967Z,39.86
2022-08-26T16:48:10.021Z,39.90
2022-08-26T16:58:22.363Z,40.14
2022-08-26T17:03:25.662Z,39.99
2022-08-26T17:08:29.169Z,40.34
2022-08-26T17:13:35.108Z,40.57
2022-08-26T17:18:39.197Z,40.86
2022-08-26T17:23:45.143Z,41.13
2022-08-26T17:28:48.220Z,41.62
2022-08-26T17:33:53.344Z,41.99
2022-08-26T17:38:58.691Z,42.22
2022-08-26T17:44:01.792Z,42.42
2022-08-26T17:49:05.943Z,42.75
2022-08-26T17:54:09.337Z,43.05
2022-08-26T17:59:12.379Z,43.42
2022-08-26T18:04:16.012Z,43.72
2022-08-26T18:09:19.504Z,43.88
2022-08-26T18:14:22.560Z,44.06
2022-08-26T18:19:25.968Z,44.29
2022-08-26T18:24:41.599Z,44.64
2022-08-26T18:30:01.713Z,44.66
2022-08-26T18:35:05.335Z,44.92
2022-08-26T18:40:11.850Z,45.02
2022-08-26T18:45:16.157Z,45.29
2022-08-26T18:50:19.500Z,45.52
2022-08-26T18:55:22.842Z,45.63
2022-08-26T19:00:25.843Z,45.81
2022-08-26T19:05:28.922Z,45.99
2022-08-26T19:10:32.028Z,46.20
2022-08-26T19:15:43.115Z,46.41
2022-08-26T19:20:48.034Z,46.60
2022-08-26T19:25:53.189Z,46.84
2022-08-26T19:30:56.379Z,47.05
2022-08-26T19:35:59.443Z,47.25
2022-08-26T19:41:02.432Z,47.53
2022-08-26T19:46:20.101Z,47.78
2022-08-26T19:51:30.405Z,48.32
2022-08-26T19:56:33.380Z,49.25
2022-08-26T20:01:36.413Z,48.77
2022-08-26T20:06:39.852Z,48.69
2022-08-26T20:11:42.842Z,49.01
2022-08-26T20:16:45.905Z,49.96
2022-08-26T20:21:49.080Z,49.43
2022-08-26T20:26:53.464Z,49.66
2022-08-26T20:31:57.048Z,52.48
2022-08-26T20:37:00.581Z,53.85
2022-08-26T20:42:05.475Z,54.54
2022-08-26T20:47:23.563Z,55.29
2022-08-26T20:52:26.704Z,55.44
2022-08-26T20:57:29.835Z,56.58
2022-08-26T21:02:32.924Z,57.14
2022-08-26T21:07:36.042Z,56.87
2022-08-26T21:12:39.405Z,57.41
2022-08-26T21:17:42.531Z,57.31
2022-08-26T21:22:45.891Z,58.10
2022-08-26T21:27:48.985Z,58.37
2022-08-26T21:32:52.117Z,58.31
2022-08-26T21:37:55.214Z,58.82
2022-08-26T21:42:58.417Z,59.61
2022-08-26T21:48:01.542Z,60.10
2022-08-26T21:53:04.653Z,60.33
2022-08-26T21:58:07.771Z,60.36
2022-08-26T22:03:10.914Z,60.84
2022-08-26T22:08:14.007Z,61.13
2022-08-26T22:13:17.662Z,61.09
2022-08-26T22:18:21.789Z,61.27
2022-08-26T22:23:24.924Z,61.44
2022-08-26T22:28:28.613Z,61.51
2022-08-26T22:33:31.663Z,61.63
2022-08-26T22:38:35.001Z,61.91
2022-08-26T22:43:38.854Z,61.90
2022-08-26T22:48:42.927Z,66.93
2022-08-26T22:53:46.768Z,63.18
2022-08-26T22:58:50.222Z,55.50
2022-08-26T23:03:53.871Z,54.31
2022-08-26T23:08:56.974Z,55.51
2022-08-26T23:14:06.733Z,56.70
2022-08-26T23:19:13.669Z,57.86
2022-08-26T23:24:18.617Z,56.19
2022-08-26T23:29:21.715Z,55.93
2022-08-26T23:34:43.399Z,56.20
2022-08-26T23:39:46.768Z,56.63
2022-08-26T23:44:50.427Z,58.04
2022-08-26T23:49:53.497Z,59.21
2022-08-26T23:54:56.687Z,60.30
